Time;durP1;ratioP1;P1;durP2;ratioP2;P2;SDS_P1;SDS_P2;PMS_P1;PMS_P2;Temp;Humidity;BMP_temperature;BMP_pressure;BME280_temperature;BME280_humidity;BME280_pressure;Samples;Min_cycle;Max_cycle;Signal;HPM_P1;HPM_P2
2023/10/09 00:01:28;;;;;;;;;;;14.30;78.30;;;;;;5078225;28;19912;-57
2023/10/09 00:03:55;;;;;;;;;;;14.30;80.50;;;;;;5078292;28;19912;-57
2023/10/09 00:06:32;;;;;;;;;;;14.30;81.30;;;;;;5077967;28;19915;-57
2023/10/09 00:08:58;;;;;;;;;;;14.20;81.60;;;;;;5077050;28;19909;-57
2023/10/09 00:11:29;;;;;;;;;;;14.10;81.90;;;;;;5078053;28;19962;-57
2023/10/09 00:13:58;;;;;;;;;;;14.00;82.70;;;;;;5077910;28;20354;-57
2023/10/09 00:16:34;;;;;;;;;;;13.90;83.30;;;;;;5078077;28;19908;-57
2023/10/09 00:19:13;;;;;;;;;;;13.90;83.70;;;;;;5078006;28;19908;-57
2023/10/09 00:21:43;;;;;;;;;;;13.90;83.70;;;;;;5077773;28;19916;-57
2023/10/09 00:24:24;;;;;;;;;;;13.70;83.50;;;;;;5077882;28;19915;-57
2023/10/09 00:26:51;;;;;;;;;;;13.60;83.00;;;;;;5077935;28;20382;-57
2023/10/09 00:29:23;;;;;;;;;;;13.50;85.00;;;;;;5077782;28;19908;-57
2023/10/09 00:31:55;;;;;;;;;;;13.50;85.40;;;;;;5076500;28;19934;-57
2023/10/09 00:34:22;;;;;;;;;;;13.40;85.80;;;;;;5076506;28;19951;-57
2023/10/09 00:36:51;;;;;;;;;;;13.30;85.60;;;;;;5077573;28;19934;-57
2023/10/09 00:39:41;;;;;;;;;;;13.30;86.10;;;;;;5076352;28;19914;-57
2023/10/09 00:42:06;;;;;;;;;;;13.20;88.00;;;;;;5077438;28;20415;-57
2023/10/09 00:44:39;;;;;;;;;;;13.00;87.80;;;;;;5077406;28;20392;-57
2023/10/09 00:47:10;;;;;;;;;;;12.90;88.40;;;;;;5077502;28;19909;-57
2023/10/09 00:49:41;;;;;;;;;;;12.90;88.70;;;;;;5077486;28;19912;-57
2023/10/09 00:52:17;;;;;;;;;;;12.80;89.00;;;;;;5077363;28;19962;-57
2023/10/09 00:54:44;;;;;;;;;;;12.80;89.80;;;;;;5059322;28;19915;-57
2023/10/09 00:57:13;;;;;;;;;;;12.70;89.20;;;;;;5075887;28;19908;-57
2023/10/09 00:59:42;;;;;;;;;;;12.50;89.70;;;;;;5063352;28;19908;-57
2023/10/09 01:02:09;;;;;;;;;;;12.40;90.20;;;;;;5039124;28;19913;-57
2023/10/09 01:04:41;;;;;;;;;;;12.30;90.80;;;;;;5057399;28;19915;-57
2023/10/09 01:07:10;;;;;;;;;;;12.20;91.40;;;;;;5056933;28;19919;-57
2023/10/09 01:09:38;;;;;;;;;;;12.20;91.80;;;;;;5039127;28;19911;-57
2023/10/09 01:12:04;;;;;;;;;;;12.10;92.40;;;;;;5056873;28;19916;-57
2023/10/09 01:14:31;;;;;;;;;;;12.10;93.30;;;;;;5038809;28;19909;-57
2023/10/09 01:16:57;;;;;;;;;;;12.00;94.20;;;;;;5056867;28;19908;-57
2023/10/09 01:19:30;;;;;;;;;;;12.00;94.50;;;;;;5057033;28;19909;-57
2023/10/09 01:22:04;;;;;;;;;;;12.00;95.10;;;;;;5056712;28;19913;-57
2023/10/09 01:24:37;;;;;;;;;;;12.00;95.20;;;;;;5056742;28;19909;-57
2023/10/09 01:27:05;;;;;;;;;;;11.80;95.60;;;;;;5056652;28;20023;-57
2023/10/09 01:29:31;;;;;;;;;;;11.80;96.30;;;;;;5038807;28;19912;-57
2023/10/09 01:32:00;;;;;;;;;;;11.80;96.70;;;;;;5038716;28;19909;-57
2023/10/09 01:34:41;;;;;;;;;;;11.60;97.00;;;;;;5038654;28;19999;-57
2023/10/09 01:37:22;;;;;;;;;;;11.60;97.80;;;;;;5038569;28;20278;-57
2023/10/09 01:39:57;;;;;;;;;;;11.60;98.00;;;;;;5056522;28;19919;-57
2023/10/09 01:44:58;;;;;;;;;;;11.40;98.20;;;;;;5056274;28;20361;-57
2023/10/09 01:47:25;;;;;;;;;;;11.40;98.80;;;;;;5056631;28;19905;-57
2023/10/09 01:49:53;;;;;;;;;;;11.30;99.30;;;;;;5038424;28;19955;-57
2023/10/09 01:52:20;;;;;;;;;;;11.40;99.30;;;;;;5038458;28;19915;-57
2023/10/09 01:54:49;;;;;;;;;;;11.30;99.50;;;;;;5056211;28;19908;-57
2023/10/09 01:57:21;;;;;;;;;;;11.30;99.80;;;;;;5038265;28;19909;-57
2023/10/09 01:59:49;;;;;;;;;;;11.20;99.10;;;;;;5052999;28;19946;-57
2023/10/09 02:02:34;;;;;;;;;;;11.10;99.40;;;;;;5074699;28;20259;-57
2023/10/09 02:05:43;;;;;;;;;;;11.10;99.90;;;;;;5076152;28;19915;-57
2023/10/09 02:07:53;;;;;;;;;;;11.10;99.90;;;;;;5052761;28;19920;-57
2023/10/09 02:10:39;;;;;;;;;;;11.00;99.90;;;;;;5076044;28;19931;-57
2023/10/09 02:13:11;;;;;;;;;;;11.00;99.90;;;;;;5075795;28;19908;-57
2023/10/09 02:18:17;;;;;;;;;;;10.90;99.90;;;;;;5058014;28;19908;-57
2023/10/09 02:20:47;;;;;;;;;;;10.90;99.90;;;;;;5075934;28;19908;-57
2023/10/09 02:23:17;;;;;;;;;;;10.80;99.90;;;;;;5057984;28;19912;-57
2023/10/09 02:25:43;;;;;;;;;;;10.80;99.90;;;;;;5075912;28;19908;-57
2023/10/09 02:28:17;;;;;;;;;;;10.80;99.90;;;;;;5074539;28;20014;-56
2023/10/09 02:30:47;;;;;;;;;;;10.70;99.90;;;;;;5077957;28;19908;-57
2023/10/09 02:33:27;;;;;;;;;;;10.60;99.90;;;;;;5082284;28;19909;-57
2023/10/09 02:35:54;;;;;;;;;;;10.60;99.90;;;;;;5082456;28;20373;-57
2023/10/09 02:38:23;;;;;;;;;;;10.50;99.90;;;;;;5064471;28;19958;-56
2023/10/09 02:43:34;;;;;;;;;;;10.50;99.90;;;;;;5064333;28;19912;-57
2023/10/09 02:46:36;;;;;;;;;;;10.40;99.90;;;;;;5082452;28;20269;-57
2023/10/09 02:48:56;;;;;;;;;;;10.40;99.90;;;;;;5062209;28;19912;-56
2023/10/09 02:53:52;;;;;;;;;;;10.30;99.90;;;;;;5082187;28;19909;-57
2023/10/09 02:56:23;;;;;;;;;;;10.40;99.90;;;;;;5082413;28;19912;-57
2023/10/09 02:58:50;;;;;;;;;;;10.30;99.90;;;;;;5074053;28;20325;-57
2023/10/09 03:01:16;;;;;;;;;;;10.10;99.90;;;;;;5044082;28;19916;-56
2023/10/09 03:03:46;;;;;;;;;;;10.00;99.90;;;;;;5062092;28;19930;-57
2023/10/09 03:06:13;;;;;;;;;;;10.00;99.90;;;;;;5044127;28;19913;-56
2023/10/09 03:08:42;;;;;;;;;;;10.00;99.90;;;;;;5043985;28;19920;-56
2023/10/09 03:11:13;;;;;;;;;;;10.00;99.90;;;;;;5044083;28;19962;-57
2023/10/09 03:13:43;;;;;;;;;;;9.90;99.90;;;;;;5061940;28;19912;-56
2023/10/09 03:16:14;;;;;;;;;;;9.90;99.90;;;;;;5062073;28;19943;-56
2023/10/09 03:18:40;;;;;;;;;;;9.90;99.90;;;;;;5061980;28;19909;-57
2023/10/09 03:21:06;;;;;;;;;;;9.90;99.90;;;;;;5062207;28;19909;-57
2023/10/09 03:23:34;;;;;;;;;;;9.90;99.90;;;;;;5061897;28;20282;-57
2023/10/09 03:25:59;;;;;;;;;;;9.90;99.90;;;;;;5044056;28;20054;-56
2023/10/09 03:28:27;;;;;;;;;;;9.80;99.90;;;;;;5043936;28;19908;-57
2023/10/09 03:30:53;;;;;;;;;;;9.80;99.90;;;;;;5061935;28;19915;-56
2023/10/09 03:33:18;;;;;;;;;;;9.80;99.90;;;;;;5061778;28;19909;-57
2023/10/09 03:35:44;;;;;;;;;;;9.70;99.90;;;;;;5061914;28;20309;-56
2023/10/09 03:38:16;;;;;;;;;;;9.70;99.90;;;;;;5061805;28;19912;-57
2023/10/09 03:40:43;;;;;;;;;;;9.80;99.90;;;;;;5061967;28;20007;-56
2023/10/09 03:43:10;;;;;;;;;;;9.90;99.90;;;;;;5059287;28;19921;-56
2023/10/09 03:45:38;;;;;;;;;;;9.80;99.90;;;;;;5058565;28;19915;-56
2023/10/09 03:48:11;;;;;;;;;;;9.70;99.90;;;;;;5058624;28;19914;-56
2023/10/09 03:50:38;;;;;;;;;;;9.70;99.90;;;;;;5058553;28;20000;-56
2023/10/09 03:53:07;;;;;;;;;;;9.70;99.90;;;;;;5058479;28;19913;-56
2023/10/09 03:55:39;;;;;;;;;;;9.60;99.90;;;;;;5058479;28;19909;-56
2023/10/09 03:58:12;;;;;;;;;;;9.60;99.90;;;;;;5059288;28;19951;-57
2023/10/09 04:00:49;;;;;;;;;;;9.40;99.90;;;;;;5078377;28;19958;-56
2023/10/09 04:03:15;;;;;;;;;;;9.50;99.90;;;;;;5078210;28;19912;-56
2023/10/09 04:05:42;;;;;;;;;;;9.50;99.90;;;;;;5078257;28;20383;-56
2023/10/09 04:08:19;;;;;;;;;;;9.40;99.90;;;;;;5078154;28;19998;-56
2023/10/09 04:10:59;;;;;;;;;;;9.40;99.90;;;;;;5078262;28;19944;-56
2023/10/09 04:13:33;;;;;;;;;;;9.30;99.90;;;;;;5077940;28;19909;-56
2023/10/09 04:16:08;;;;;;;;;;;9.30;99.90;;;;;;5078170;28;20224;-56
2023/10/09 04:18:38;;;;;;;;;;;9.40;99.90;;;;;;5078041;28;19915;-56
2023/10/09 04:21:33;;;;;;;;;;;9.40;99.90;;;;;;5077926;28;19912;-56
2023/10/09 04:26:36;;;;;;;;;;;9.30;99.90;;;;;;5077918;28;19931;-56
2023/10/09 04:29:03;;;;;;;;;;;9.30;99.90;;;;;;5077875;28;19962;-56
2023/10/09 04:31:34;;;;;;;;;;;9.30;99.90;;;;;;5077797;28;19908;-57
2023/10/09 04:37:36;;;;;;;;;;;9.30;99.90;;;;;;5077698;28;20437;-56
2023/10/09 04:47:49;;;;;;;;;;;9.40;99.90;;;;;;5077410;28;19909;-56
2023/10/09 05:02:57;;;;;;;;;;;9.40;99.90;;;;;;5057093;28;20008;-56
2023/10/09 05:08:21;;;;;;;;;;;9.40;99.90;;;;;;5056899;28;20103;-57
2023/10/09 05:11:06;;;;;;;;;;;9.40;99.90;;;;;;5056883;28;20332;-56
2023/10/09 05:16:04;;;;;;;;;;;9.50;99.90;;;;;;5056899;28;19916;-56
2023/10/09 05:18:36;;;;;;;;;;;9.50;99.90;;;;;;5056200;28;19908;-56
2023/10/09 05:24:16;;;;;;;;;;;10.00;99.90;;;;;;5056618;28;20297;-57
2023/10/09 05:37:17;;;;;;;;;;;11.70;99.90;;;;;;5053749;28;19999;-56
2023/10/09 05:40:21;;;;;;;;;;;12.20;99.90;;;;;;5055562;28;20222;-56
2023/10/09 05:51:10;;;;;;;;;;;14.00;95.80;;;;;;5054823;28;20404;-57
2023/10/09 06:02:38;;;;;;;;;;;14.70;93.20;;;;;;5048824;28;19931;-57
2023/10/09 06:07:22;;;;;;;;;;;14.60;92.30;;;;;;5050393;28;19961;-57
2023/10/09 06:09:55;;;;;;;;;;;14.90;91.90;;;;;;5050605;28;19999;-57
2023/10/09 06:12:49;;;;;;;;;;;14.50;90.10;;;;;;5055196;28;20321;-56
2023/10/09 06:18:25;;;;;;;;;;;14.10;92.80;;;;;;5017751;28;19915;-57
2023/10/09 06:26:32;;;;;;;;;;;14.40;91.30;;;;;;5050706;28;19908;-57
2023/10/09 06:29:14;;;;;;;;;;;14.70;91.20;;;;;;5052793;28;19913;-57
2023/10/09 06:31:58;;;;;;;;;;;15.10;89.60;;;;;;5052918;28;19967;-57
2023/10/09 06:34:35;;;;;;;;;;;14.50;90.50;;;;;;5055966;28;19970;-57
2023/10/09 06:37:18;;;;;;;;;;;14.70;90.00;;;;;;5055888;28;19909;-57
2023/10/09 06:42:43;;;;;;;;;;;15.10;88.80;;;;;;5053751;28;19913;-57
2023/10/09 06:47:55;;;;;;;;;;;16.70;84.90;;;;;;5055468;28;19920;-57
2023/10/09 06:52:58;;;;;;;;;;;17.70;78.60;;;;;;5044677;28;19955;-57
2023/10/09 06:55:48;;;;;;;;;;;18.00;76.80;;;;;;5035879;28;19913;-57
2023/10/09 06:58:22;;;;;;;;;;;17.50;72.30;;;;;;5043871;28;19909;-57
2023/10/09 07:03:36;;;;;;;;;;;18.70;70.40;;;;;;5051892;28;19938;-57
2023/10/09 07:06:05;;;;;;;;;;;18.50;71.30;;;;;;5054701;28;19912;-57
2023/10/09 07:08:38;;;;;;;;;;;19.10;67.10;;;;;;5054756;28;19919;-57
2023/10/09 07:11:27;;;;;;;;;;;19.20;67.00;;;;;;5053877;28;20024;-57
2023/10/09 07:13:55;;;;;;;;;;;19.30;62.50;;;;;;5044460;28;19959;-57
2023/10/09 07:16:28;;;;;;;;;;;18.20;65.60;;;;;;5038215;28;20267;-57
2023/10/09 07:18:55;;;;;;;;;;;17.90;66.70;;;;;;5038857;28;20367;-57
2023/10/09 07:21:28;;;;;;;;;;;19.10;65.00;;;;;;5039447;28;20368;-57
2023/10/09 07:23:57;;;;;;;;;;;20.10;61.60;;;;;;5038916;28;19912;-57
2023/10/09 07:26:36;;;;;;;;;;;20.40;59.50;;;;;;5039126;28;19909;-57
2023/10/09 07:29:16;;;;;;;;;;;20.50;57.30;;;;;;5042038;28;19980;-58
2023/10/09 07:31:45;;;;;;;;;;;20.90;56.80;;;;;;5058534;28;19913;-57
2023/10/09 07:37:03;;;;;;;;;;;20.80;55.20;;;;;;5058512;28;19909;-57
2023/10/09 07:39:34;;;;;;;;;;;20.60;55.70;;;;;;5058559;28;19908;-57
2023/10/09 07:42:19;;;;;;;;;;;21.10;54.10;;;;;;5058351;28;19913;-57
2023/10/09 07:44:52;;;;;;;;;;;21.20;54.00;;;;;;5058482;28;19915;-57
2023/10/09 07:50:20;;;;;;;;;;;21.20;52.30;;;;;;5042152;28;19909;-57
2023/10/09 07:52:49;;;;;;;;;;;21.80;51.70;;;;;;5058901;28;20354;-57
2023/10/09 07:55:54;;;;;;;;;;;21.90;51.70;;;;;;5057574;28;20346;-57
2023/10/09 07:58:11;;;;;;;;;;;21.60;51.60;;;;;;5047656;28;20478;-57
2023/10/09 08:01:06;;;;;;;;;;;22.30;49.80;;;;;;5057564;28;19909;-57
2023/10/09 08:03:34;;;;;;;;;;;22.40;50.10;;;;;;5057696;28;19996;-57
2023/10/09 08:14:20;;;;;;;;;;;23.50;44.80;;;;;;5057751;28;20384;-58
2023/10/09 08:16:47;;;;;;;;;;;24.40;45.30;;;;;;5046366;28;20286;-58
2023/10/09 08:22:58;;;;;;;;;;;23.30;43.80;;;;;;5057308;28;19951;-58
2023/10/09 08:24:56;;;;;;;;;;;23.20;43.80;;;;;;5038018;28;20283;-58
2023/10/09 08:32:43;;;;;;;;;;;23.60;45.00;;;;;;5058035;28;19947;-58
2023/10/09 08:42:23;;;;;;;;;;;23.30;44.40;;;;;;5044115;28;20357;-58
2023/10/09 08:44:49;;;;;;;;;;;24.50;43.60;;;;;;5057205;28;19909;-58
2023/10/09 08:47:15;;;;;;;;;;;24.70;42.70;;;;;;5057217;28;20397;-58
2023/10/09 08:49:42;;;;;;;;;;;25.50;41.70;;;;;;5056176;28;20435;-58
2023/10/09 08:52:10;;;;;;;;;;;26.30;40.50;;;;;;5056639;28;20369;-58
2023/10/09 08:54:37;;;;;;;;;;;26.70;38.60;;;;;;5046843;28;19932;-58
2023/10/09 08:57:02;;;;;;;;;;;26.50;37.60;;;;;;5047740;28;19951;-58
2023/10/09 08:59:28;;;;;;;;;;;25.40;39.80;;;;;;5050501;28;19913;-58
2023/10/09 09:01:58;;;;;;;;;;;25.40;41.60;;;;;;5056268;28;19921;-58
2023/10/09 09:04:39;;;;;;;;;;;26.40;39.40;;;;;;5056057;28;19909;-58
2023/10/09 09:07:05;;;;;;;;;;;26.90;38.30;;;;;;5054738;28;19912;-58
2023/10/09 09:09:32;;;;;;;;;;;26.90;38.70;;;;;;5054390;28;20003;-58
2023/10/09 09:11:59;;;;;;;;;;;27.20;36.20;;;;;;5048128;28;19909;-58
2023/10/09 09:14:38;;;;;;;;;;;27.00;37.50;;;;;;5048096;28;19908;-58
2023/10/09 09:17:05;;;;;;;;;;;26.60;36.50;;;;;;5036847;28;20392;-58
2023/10/09 09:19:31;;;;;;;;;;;26.40;37.20;;;;;;5036949;28;19909;-58
2023/10/09 09:22:11;;;;;;;;;;;26.80;38.80;;;;;;5035940;28;19913;-58
2023/10/09 09:24:37;;;;;;;;;;;26.90;36.90;;;;;;5036432;28;19999;-58
2023/10/09 09:27:12;;;;;;;;;;;27.50;36.00;;;;;;5045476;28;19940;-58
2023/10/09 09:29:38;;;;;;;;;;;27.90;36.30;;;;;;5047994;28;20385;-58
2023/10/09 09:32:23;;;;;;;;;;;27.90;34.60;;;;;;5054992;28;20070;-58
2023/10/09 09:34:54;;;;;;;;;;;28.00;34.20;;;;;;5047067;28;19913;-58
2023/10/09 09:37:20;;;;;;;;;;;27.90;34.80;;;;;;5050880;28;19916;-59
2023/10/09 09:39:51;;;;;;;;;;;28.50;33.60;;;;;;5056061;28;19908;-58
2023/10/09 09:42:24;;;;;;;;;;;28.50;33.30;;;;;;5053172;28;21305;-58
2023/10/09 09:44:50;;;;;;;;;;;28.70;33.40;;;;;;5050027;28;19955;-59
2023/10/09 09:47:23;;;;;;;;;;;28.60;35.50;;;;;;5044638;28;19983;-58
2023/10/09 09:49:50;;;;;;;;;;;28.70;34.80;;;;;;5045405;28;19916;-58
2023/10/09 09:52:18;;;;;;;;;;;28.80;33.70;;;;;;5054888;28;19909;-59
2023/10/09 09:54:44;;;;;;;;;;;28.70;33.70;;;;;;5040296;28;19909;-57
2023/10/09 09:57:13;;;;;;;;;;;28.80;34.30;;;;;;5043838;28;19935;-57
2023/10/09 09:59:40;;;;;;;;;;;28.70;32.70;;;;;;5056352;28;19920;-57
2023/10/09 10:02:10;;;;;;;;;;;28.50;34.40;;;;;;5037682;28;19913;-57
2023/10/09 10:04:41;;;;;;;;;;;28.70;32.80;;;;;;5055762;28;19912;-57
2023/10/09 10:07:11;;;;;;;;;;;28.50;32.80;;;;;;5054950;28;20352;-57
2023/10/09 10:09:41;;;;;;;;;;;28.90;33.50;;;;;;5055538;28;19908;-57
2023/10/09 10:12:10;;;;;;;;;;;29.00;34.60;;;;;;5035940;28;19948;-57
2023/10/09 10:15:28;;;;;;;;;;;29.50;32.60;;;;;;5053904;28;19913;-58
2023/10/09 10:18:10;;;;;;;;;;;29.80;33.80;;;;;;5044531;28;19939;-57
2023/10/09 10:21:00;;;;;;;;;;;30.20;30.00;;;;;;5056042;28;19909;-58
2023/10/09 10:23:32;;;;;;;;;;;29.80;30.00;;;;;;5055293;28;19919;-58
2023/10/09 10:26:15;;;;;;;;;;;29.00;32.20;;;;;;5053837;28;20400;-58
2023/10/09 10:28:45;;;;;;;;;;;28.90;32.00;;;;;;5053286;28;19916;-57
2023/10/09 10:31:13;;;;;;;;;;;28.50;32.30;;;;;;5055140;28;19909;-57
2023/10/09 10:33:58;;;;;;;;;;;28.40;36.50;;;;;;5053289;28;19912;-57
2023/10/09 10:36:26;;;;;;;;;;;29.00;35.20;;;;;;5050883;28;20027;-57
2023/10/09 10:41:53;;;;;;;;;;;29.10;31.90;;;;;;5045439;28;19939;-57
2023/10/09 10:44:38;;;;;;;;;;;29.00;32.00;;;;;;5050884;28;20507;-57
2023/10/09 10:47:05;;;;;;;;;;;28.70;31.70;;;;;;5048217;28;19921;-57
2023/10/09 10:49:38;;;;;;;;;;;28.30;34.00;;;;;;5042098;28;19996;-57
2023/10/09 10:52:18;;;;;;;;;;;28.00;33.60;;;;;;5054879;28;19995;-57
2023/10/09 10:57:19;;;;;;;;;;;26.80;36.70;;;;;;5059355;28;20274;-57
2023/10/09 10:59:45;;;;;;;;;;;26.50;38.10;;;;;;5052783;28;20359;-57
2023/10/09 11:04:44;;;;;;;;;;;26.80;36.40;;;;;;5053045;28;19999;-57
2023/10/09 11:07:16;;;;;;;;;;;26.60;37.80;;;;;;5042187;28;19924;-57
2023/10/09 11:12:37;;;;;;;;;;;27.10;36.90;;;;;;5056004;28;19913;-57
2023/10/09 11:15:08;;;;;;;;;;;27.40;37.60;;;;;;5045166;28;19963;-57
2023/10/09 11:17:38;;;;;;;;;;;28.20;37.40;;;;;;5039400;28;20333;-57
2023/10/09 11:20:26;;;;;;;;;;;28.70;34.80;;;;;;5042186;28;19940;-57
2023/10/09 11:25:33;;;;;;;;;;;29.30;34.20;;;;;;5056271;28;19979;-57
2023/10/09 11:28:15;;;;;;;;;;;29.60;32.70;;;;;;5058885;28;19913;-57
2023/10/09 11:30:45;;;;;;;;;;;29.70;34.30;;;;;;5043180;28;19944;-57
2023/10/09 11:33:14;;;;;;;;;;;29.90;32.00;;;;;;5055349;28;19999;-57
2023/10/09 11:35:56;;;;;;;;;;;30.00;35.20;;;;;;5056009;28;19909;-58
2023/10/09 11:38:23;;;;;;;;;;;29.70;31.50;;;;;;5057595;28;19915;-58
2023/10/09 11:43:17;;;;;;;;;;;28.20;34.50;;;;;;5058829;28;19943;-58
2023/10/09 11:45:54;;;;;;;;;;;28.50;34.10;;;;;;5056991;28;20398;-58
2023/10/09 11:49:34;;;;;;;;;;;27.40;36.40;;;;;;5056936;28;20369;-58
2023/10/09 11:51:18;;;;;;;;;;;27.20;38.10;;;;;;5043864;28;19962;-58
2023/10/09 11:53:54;;;;;;;;;;;27.70;38.20;;;;;;5053637;28;19909;-58
2023/10/09 11:56:27;;;;;;;;;;;28.50;37.30;;;;;;5052614;28;19913;-58
2023/10/09 11:58:54;;;;;;;;;;;29.40;35.70;;;;;;5054978;28;20031;-58
2023/10/09 12:01:21;;;;;;;;;;;28.80;34.10;;;;;;5048051;28;19916;-58
2023/10/09 12:03:49;;;;;;;;;;;29.60;33.80;;;;;;5046167;28;19935;-58
2023/10/09 12:06:22;;;;;;;;;;;29.00;35.60;;;;;;5055458;28;19913;-58
2023/10/09 12:08:48;;;;;;;;;;;28.60;34.70;;;;;;5057767;28;19912;-58
2023/10/09 12:11:22;;;;;;;;;;;28.60;36.50;;;;;;5057046;28;19959;-58
2023/10/09 12:13:56;;;;;;;;;;;28.50;36.60;;;;;;5046963;28;20507;-58
2023/10/09 12:16:27;;;;;;;;;;;29.30;36.10;;;;;;5055339;28;20500;-58
2023/10/09 12:18:57;;;;;;;;;;;29.30;34.40;;;;;;5051679;28;20269;-58
2023/10/09 12:21:23;;;;;;;;;;;28.30;36.30;;;;;;5053228;28;20007;-58
2023/10/09 12:23:49;;;;;;;;;;;28.00;37.00;;;;;;5056396;28;19913;-58
2023/10/09 12:26:14;;;;;;;;;;;28.50;38.10;;;;;;5052235;28;20353;-58
2023/10/09 12:28:45;;;;;;;;;;;29.30;36.70;;;;;;5047822;28;19916;-58
2023/10/09 12:31:15;;;;;;;;;;;29.10;36.30;;;;;;5046826;28;19932;-58
2023/10/09 12:33:40;;;;;;;;;;;30.00;36.90;;;;;;5045822;28;19916;-58
2023/10/09 12:36:17;;;;;;;;;;;29.70;34.10;;;;;;5047998;28;20369;-58
2023/10/09 12:38:46;;;;;;;;;;;29.60;34.20;;;;;;5048363;28;19909;-58
2023/10/09 12:41:28;;;;;;;;;;;29.00;35.20;;;;;;5049120;28;19916;-58
2023/10/09 12:43:54;;;;;;;;;;;29.40;37.20;;;;;;5053718;28;19963;-58
2023/10/09 12:46:23;;;;;;;;;;;29.40;35.80;;;;;;5056823;28;19967;-58
2023/10/09 12:48:49;;;;;;;;;;;29.70;35.10;;;;;;5055325;28;20373;-58
2023/10/09 12:51:18;;;;;;;;;;;29.00;36.00;;;;;;5056896;28;19927;-58
2023/10/09 12:53:45;;;;;;;;;;;29.80;37.10;;;;;;5056521;28;19912;-58
2023/10/09 12:56:14;;;;;;;;;;;29.80;34.40;;;;;;5054529;28;19967;-58
2023/10/09 12:58:52;;;;;;;;;;;29.50;35.70;;;;;;5041282;28;19916;-58
2023/10/09 13:01:19;;;;;;;;;;;29.10;36.10;;;;;;5045310;28;19909;-58
2023/10/09 13:03:49;;;;;;;;;;;28.50;37.00;;;;;;5039847;28;19913;-58
2023/10/09 13:06:15;;;;;;;;;;;28.60;38.80;;;;;;5053289;28;19965;-58
2023/10/09 13:08:42;;;;;;;;;;;28.80;38.70;;;;;;5050413;28;19916;-58
2023/10/09 13:11:11;;;;;;;;;;;28.60;38.90;;;;;;5050090;28;19905;-58
2023/10/09 13:13:41;;;;;;;;;;;28.80;39.50;;;;;;5050855;28;19915;-58
2023/10/09 13:16:07;;;;;;;;;;;29.10;39.60;;;;;;5055915;28;19920;-58
2023/10/09 13:18:34;;;;;;;;;;;29.40;40.40;;;;;;5056444;28;20338;-58
2023/10/09 13:21:03;;;;;;;;;;;28.70;38.80;;;;;;5054107;28;19956;-58
2023/10/09 13:23:38;;;;;;;;;;;29.20;38.50;;;;;;5043980;28;20385;-58
2023/10/09 13:26:17;;;;;;;;;;;29.40;37.40;;;;;;5046984;28;20293;-58
2023/10/09 13:28:45;;;;;;;;;;;29.60;37.10;;;;;;5055917;28;19916;-58
2023/10/09 13:31:13;;;;;;;;;;;29.40;37.30;;;;;;5056571;28;19909;-58
2023/10/09 13:33:43;;;;;;;;;;;29.10;37.90;;;;;;5056519;28;19913;-58
2023/10/09 13:36:19;;;;;;;;;;;28.20;38.70;;;;;;5056260;28;19958;-58
2023/10/09 13:38:45;;;;;;;;;;;28.50;39.20;;;;;;5056439;28;20377;-58
2023/10/09 13:41:12;;;;;;;;;;;28.60;40.00;;;;;;5056408;28;19913;-58
2023/10/09 13:43:42;;;;;;;;;;;29.20;39.50;;;;;;5056235;28;19999;-58
2023/10/09 13:46:09;;;;;;;;;;;28.70;37.70;;;;;;5056254;28;20278;-58
2023/10/09 13:48:38;;;;;;;;;;;28.90;38.40;;;;;;5056260;28;20281;-58
2023/10/09 13:51:07;;;;;;;;;;;29.10;39.10;;;;;;5056288;28;20372;-58
2023/10/09 13:53:35;;;;;;;;;;;28.90;38.10;;;;;;5056423;28;19955;-58
2023/10/09 13:56:02;;;;;;;;;;;28.60;39.40;;;;;;5056145;28;19912;-58
2023/10/09 13:58:28;;;;;;;;;;;28.40;39.80;;;;;;5056017;28;19932;-58
2023/10/09 14:00:56;;;;;;;;;;;28.50;39.50;;;;;;5056020;28;20282;-58
2023/10/09 14:03:23;;;;;;;;;;;28.50;40.20;;;;;;5056111;28;19913;-58
2023/10/09 14:05:54;;;;;;;;;;;28.20;40.60;;;;;;5056037;28;19908;-58
2023/10/09 14:08:22;;;;;;;;;;;28.10;42.80;;;;;;5055737;28;19972;-58
2023/10/09 14:10:48;;;;;;;;;;;28.20;41.40;;;;;;5056028;28;20441;-58
2023/10/09 14:13:16;;;;;;;;;;;28.00;42.80;;;;;;5055798;28;19995;-58
2023/10/09 14:15:43;;;;;;;;;;;27.50;43.30;;;;;;5055671;28;19912;-58
2023/10/09 14:18:11;;;;;;;;;;;27.20;44.30;;;;;;5051137;28;20324;-58
2023/10/09 14:20:37;;;;;;;;;;;26.90;46.90;;;;;;5035809;28;19916;-58
2023/10/09 14:23:12;;;;;;;;;;;26.60;47.80;;;;;;5035926;28;19913;-58
2023/10/09 14:25:39;;;;;;;;;;;26.70;49.10;;;;;;5035831;28;19909;-58
2023/10/09 14:28:07;;;;;;;;;;;26.50;49.50;;;;;;5034892;28;20418;-58
2023/10/09 14:30:41;;;;;;;;;;;26.20;50.70;;;;;;5035986;28;20343;-58
2023/10/09 14:33:12;;;;;;;;;;;26.10;51.50;;;;;;5035857;28;20314;-58
2023/10/09 14:35:39;;;;;;;;;;;25.90;52.60;;;;;;5035721;28;19909;-58
2023/10/09 14:38:11;;;;;;;;;;;25.70;54.20;;;;;;5035635;28;19905;-58
2023/10/09 14:40:41;;;;;;;;;;;25.60;54.10;;;;;;5035662;28;20373;-58
2023/10/09 14:43:08;;;;;;;;;;;25.60;54.80;;;;;;5035645;28;19924;-58
2023/10/09 14:45:37;;;;;;;;;;;25.50;54.90;;;;;;5035641;28;19948;-58
2023/10/09 14:48:02;;;;;;;;;;;25.50;56.00;;;;;;5035713;28;20359;-58
2023/10/09 14:50:28;;;;;;;;;;;25.30;56.30;;;;;;5035639;28;19909;-58
2023/10/09 14:52:54;;;;;;;;;;;25.20;56.10;;;;;;5035615;28;19916;-58
2023/10/09 14:55:28;;;;;;;;;;;25.00;56.70;;;;;;5035478;28;19954;-58
2023/10/09 14:57:55;;;;;;;;;;;24.80;58.90;;;;;;5035436;28;19909;-58
2023/10/09 15:00:23;;;;;;;;;;;24.60;59.90;;;;;;5035526;28;19951;-58
2023/10/09 15:02:50;;;;;;;;;;;24.50;59.70;;;;;;5035531;28;20342;-58
2023/10/09 15:05:16;;;;;;;;;;;24.50;60.30;;;;;;5035570;28;19913;-58
2023/10/09 15:07:42;;;;;;;;;;;24.40;62.30;;;;;;5035167;28;19921;-58
2023/10/09 15:10:09;;;;;;;;;;;24.20;62.80;;;;;;5035443;28;19962;-58
2023/10/09 15:12:39;;;;;;;;;;;24.00;64.10;;;;;;5035328;28;19909;-58
2023/10/09 15:15:13;;;;;;;;;;;23.90;65.60;;;;;;5035376;28;19918;-58
2023/10/09 15:17:47;;;;;;;;;;;23.90;66.70;;;;;;5049813;28;19919;-58
2023/10/09 15:20:14;;;;;;;;;;;23.80;67.90;;;;;;5055480;28;19940;-58
2023/10/09 15:22:43;;;;;;;;;;;23.50;69.40;;;;;;5055193;28;20274;-58
2023/10/09 15:25:13;;;;;;;;;;;23.30;71.50;;;;;;5055323;28;19912;-58
2023/10/09 15:27:40;;;;;;;;;;;23.20;73.80;;;;;;5055044;28;19919;-58
2023/10/09 15:30:07;;;;;;;;;;;23.00;75.80;;;;;;5055276;28;19909;-58
2023/10/09 15:32:34;;;;;;;;;;;23.00;74.80;;;;;;5055283;28;19908;-58
2023/10/09 15:35:03;;;;;;;;;;;23.00;75.60;;;;;;5055081;28;19996;-58
2023/10/09 15:37:29;;;;;;;;;;;22.80;77.90;;;;;;5055079;28;19909;-58
2023/10/09 15:39:54;;;;;;;;;;;22.60;78.80;;;;;;5058859;28;20389;-57
2023/10/09 15:42:20;;;;;;;;;;;22.50;80.50;;;;;;5058643;28;20015;-58
2023/10/09 15:44:47;;;;;;;;;;;22.40;81.10;;;;;;5058701;28;20003;-58
2023/10/09 15:47:15;;;;;;;;;;;22.20;83.30;;;;;;5058570;28;19909;-57
2023/10/09 15:49:43;;;;;;;;;;;22.20;84.00;;;;;;5058632;28;19999;-57
2023/10/09 15:52:13;;;;;;;;;;;22.00;83.40;;;;;;5058474;28;20083;-58
2023/10/09 15:54:43;;;;;;;;;;;22.00;83.60;;;;;;5058504;28;19920;-57
2023/10/09 15:57:09;;;;;;;;;;;22.00;84.80;;;;;;5058222;28;19905;-57
2023/10/09 15:59:35;;;;;;;;;;;21.90;86.50;;;;;;5058501;28;19915;-57
2023/10/09 16:02:03;;;;;;;;;;;21.80;87.60;;;;;;5057808;28;19916;-58
2023/10/09 16:04:33;;;;;;;;;;;21.50;89.10;;;;;;5058276;28;19919;-57
2023/10/09 16:07:05;;;;;;;;;;;21.50;90.20;;;;;;5058031;28;19962;-58
2023/10/09 16:09:35;;;;;;;;;;;21.30;91.20;;;;;;5058271;28;19951;-57
2023/10/09 16:12:00;;;;;;;;;;;21.20;91.90;;;;;;5057932;28;19909;-57
2023/10/09 16:14:26;;;;;;;;;;;21.10;92.60;;;;;;5058113;28;20273;-57
2023/10/09 16:16:55;;;;;;;;;;;21.00;93.30;;;;;;5057919;28;19928;-57
2023/10/09 16:19:22;;;;;;;;;;;20.90;93.90;;;;;;5058095;28;19909;-57
2023/10/09 16:21:48;;;;;;;;;;;20.80;93.30;;;;;;5057705;28;20439;-57
2023/10/09 16:24:15;;;;;;;;;;;20.70;93.00;;;;;;5058074;28;19909;-57
2023/10/09 16:26:45;;;;;;;;;;;20.60;93.50;;;;;;5057757;28;19915;-57
2023/10/09 16:29:11;;;;;;;;;;;20.60;94.30;;;;;;5057930;28;19909;-57
2023/10/09 16:31:37;;;;;;;;;;;20.50;94.90;;;;;;5057816;28;19962;-57
2023/10/09 16:34:04;;;;;;;;;;;20.40;95.20;;;;;;5057855;28;20412;-57
2023/10/09 16:36:30;;;;;;;;;;;20.30;95.50;;;;;;5057755;28;19913;-57
2023/10/09 16:38:58;;;;;;;;;;;20.10;95.50;;;;;;5057871;28;19908;-57
2023/10/09 16:41:25;;;;;;;;;;;20.10;95.40;;;;;;5057512;28;19905;-57
2023/10/09 16:43:52;;;;;;;;;;;20.00;95.50;;;;;;5057422;28;19913;-57
2023/10/09 16:46:21;;;;;;;;;;;19.90;95.40;;;;;;5057729;28;19908;-57
2023/10/09 16:48:57;;;;;;;;;;;19.80;95.90;;;;;;5057379;28;19947;-57
2023/10/09 16:51:24;;;;;;;;;;;19.50;95.90;;;;;;5056955;28;20388;-57
2023/10/09 16:53:55;;;;;;;;;;;19.60;95.80;;;;;;5057307;28;19954;-57
2023/10/09 16:56:21;;;;;;;;;;;19.40;95.70;;;;;;5057244;28;20278;-57
2023/10/09 16:58:52;;;;;;;;;;;19.30;97.30;;;;;;5056759;28;19954;-57
2023/10/09 17:01:20;;;;;;;;;;;19.20;97.20;;;;;;5057002;28;19916;-57